• Join FlightAware (Why Join?)
  • Login
  • US Flag 
11:15PM EDT


 

Airport Tracker/Info


-or-


 

Live Flight TrackerFlight Track Log ✈ KAP46 ✈ 08-Aug-2013 ✈ KALB - KMSS

Flight Track Log - Related Links

Times and Time Zones

All times are in EDT time to prevent confusion due to time zone crossing. See the KAP46 flight status page for this flight to view local times or setup timezone preferences in your user account.

Time Position Orientation Groundspeed Altitude Reporting Facility
EDT Latitude Longitude Course Direction KTS MPH feet Rate Location/Type
06:37PM 42.9196 -73.8804 341° North  Level Estimated
06:38PM 42.9439 -73.8917 341° North  Level Estimated
06:39PM 42.9683 -73.9029 341° North  Level Estimated
06:40PM 42.9926 -73.9142 341° North  Level Estimated
06:41PM 43.0170 -73.9255 341° North  Level Estimated
06:42PM 43.0413 -73.9367 341° North  Level Estimated
06:43PM 43.0657 -73.9480 341° North  Level Estimated
06:43PM 43.0014 -74.0753 315° West 152 175 8,000  Level Boston Center
06:44PM 43.0900 -73.9593 341° North  Level Estimated
06:44PM 43.0636 -74.0942 347° North 186 214 8,000  Level Boston Center
06:45PM 43.1143 -73.9706 341° North  Level Estimated
06:45PM 43.1050 -74.1150 340° North 174 200 8,000  Level Boston Center
06:46PM 43.1387 -73.9819 341° North  Level Estimated
06:46PM 43.1569 -74.1364 343° North 169 194 8,000  Level Boston Center
06:47PM 43.1630 -73.9933 341° North  Level Estimated
06:47PM 43.1983 -74.1519 345° North 163 188 8,100  Level Boston Center
06:48PM 43.1885 -74.0285 315° West  Level FlightAware Approximate
06:48PM 43.2458 -74.1703 344° North 163 188 8,000  Level Boston Center
06:49PM 43.2853 -74.1886 341° North 163 188 8,000  Level Boston Center
06:50PM 43.3411 -74.2100 344° North 163 188 8,000  Level Boston Center
06:51PM 43.3847 -74.2286 343° North 168 193 8,100  Climbing Boston Center
06:52PM 43.4283 -74.2442 345° North 168 193 8,100 -60 Level Boston Center
06:53PM 43.4697 -74.2597 345° North 163 188 8,000 -60 Descending Boston Center
06:54PM 43.5131 -74.2753 345° North 163 188 8,000  Level Boston Center
06:55PM 43.5567 -74.2936 343° North 163 188 8,000  Level Boston Center
06:56PM 43.6000 -74.3094 345° North 163 188 8,000  Level Boston Center
06:57PM 43.6436 -74.3250 346° North 163 188 8,000  Level Boston Center
06:58PM 43.6869 -74.3436 343° North 163 188 8,000  Level Boston Center
06:59PM 43.7306 -74.3622 343° North 163 188 8,000  Level Boston Center
07:00PM 43.7761 -74.3811 343° North 163 188 8,000  Level Boston Center
07:01PM 43.8217 -74.3997 344° North 163 188 8,100  Climbing Boston Center
07:02PM 43.8650 -74.4156 345° North 163 188 8,000  Descending Boston Center
07:03PM 43.9086 -74.4314 345° North 163 188 8,100  Climbing Boston Center
07:04PM 43.9519 -74.4503 343° North 163 188 8,000 -60 Descending Boston Center
07:05PM 43.9956 -74.4631 348° North 163 188 8,000  Level Boston Center
07:06PM 44.0389 -74.4819 343° North 163 188 8,000  Level Boston Center
07:07PM 44.0844 -74.5036 341° North 163 188 8,000  Level Boston Center
07:08PM 44.1281 -74.5169 348° North 163 188 8,100  Climbing Boston Center
07:09PM 44.1714 -74.5356 343° North 163 188 8,000 -60 Descending Boston Center
07:10PM 44.2189 -74.5519 346° North 163 188 8,000 -300 Level Boston Center
07:11PM 44.2644 -74.5739 341° North 163 188 7,500 -540 Descending Boston Center
07:12PM 44.3183 -74.5961 344° North 174 200 7,000 -540 Descending Boston Center
07:13PM 44.3678 -74.6153 345° North 179 206 6,500 -540 Descending Boston Center
07:14PM 44.4175 -74.6375 342° North 184 212 6,000 -600 Descending Boston Center
07:15PM 44.4672 -74.6567 345° North 184 212 5,400 -480 Descending Boston Center
07:16PM 44.5169 -74.6672 351° North 184 212 5,100 -300 Descending Boston Center